createdAt,value
2023-02-16T00:01:58.115Z,56.00
2023-02-16T00:04:27.306Z,61.53
2023-02-16T00:06:56.544Z,56.67
2023-02-16T00:09:25.202Z,54.87
2023-02-16T00:12:16.943Z,58.97
2023-02-16T00:14:46.503Z,58.53
2023-02-16T00:17:14.679Z,56.23
2023-02-16T00:19:43.206Z,60.00
2023-02-16T00:22:12.152Z,54.93
2023-02-16T00:24:40.323Z,57.93
2023-02-16T00:27:14.063Z,56.87
2023-02-16T00:29:45.667Z,55.77
2023-02-16T00:32:15.723Z,58.07
2023-02-16T00:34:44.146Z,57.23
2023-02-16T00:37:13.860Z,57.57
2023-02-16T00:39:42.877Z,57.47
2023-02-16T00:42:14.360Z,58.13
2023-02-16T00:44:43.693Z,54.57
2023-02-16T00:47:18.016Z,59.60
2023-02-16T00:49:47.599Z,59.93
2023-02-16T00:52:26.409Z,54.37
2023-02-16T00:54:54.600Z,52.43
2023-02-16T00:57:22.981Z,54.43
2023-02-16T00:59:53.097Z,57.10
2023-02-16T01:02:21.272Z,57.87
2023-02-16T01:04:50.867Z,56.57
2023-02-16T01:07:38.355Z,54.00
2023-02-16T01:10:24.845Z,58.87
2023-02-16T01:12:53.097Z,57.07
2023-02-16T01:15:23.765Z,57.07
2023-02-16T01:17:52.060Z,60.67
2023-02-16T01:20:23.155Z,55.80
2023-02-16T01:22:51.323Z,53.90
2023-02-16T01:25:19.800Z,57.53
2023-02-16T01:27:48.312Z,56.87
2023-02-16T01:30:18.155Z,54.40
2023-02-16T01:32:51.450Z,54.70
2023-02-16T01:35:20.048Z,55.93
2023-02-16T01:37:49.580Z,56.63
2023-02-16T01:40:24.852Z,54.57
2023-02-16T01:42:53.694Z,54.83
2023-02-16T01:45:25.380Z,54.17
2023-02-16T01:47:54.924Z,59.67
2023-02-16T01:50:24.398Z,52.80
2023-02-16T01:52:56.599Z,53.13
2023-02-16T01:55:26.913Z,55.33
2023-02-16T01:57:58.332Z,54.70
2023-02-16T02:00:30.003Z,55.60
2023-02-16T02:03:20.410Z,52.13
2023-02-16T02:05:47.945Z,50.57
2023-02-16T02:08:21.476Z,51.17
2023-02-16T02:10:54.181Z,54.77
2023-02-16T02:13:24.209Z,53.13
2023-02-16T02:15:52.359Z,50.33
2023-02-16T02:18:20.537Z,53.47
2023-02-16T02:21:17.163Z,52.17
2023-02-16T02:23:50.386Z,49.47
2023-02-16T02:26:48.744Z,54.13
2023-02-16T02:29:29.275Z,50.97
2023-02-16T02:32:01.839Z,49.83
2023-02-16T02:34:33.624Z,50.07
2023-02-16T02:37:06.275Z,53.53
2023-02-16T02:39:36.629Z,56.10
2023-02-16T02:42:06.308Z,51.53
2023-02-16T02:44:39.528Z,49.33
2023-02-16T02:47:07.785Z,50.07
2023-02-16T02:49:36.065Z,50.93
2023-02-16T02:52:04.298Z,49.47
2023-02-16T02:54:53.154Z,49.83
2023-02-16T02:57:44.151Z,48.03
2023-02-16T03:00:33.046Z,46.13
2023-02-16T03:03:04.352Z,47.60
2023-02-16T03:05:33.219Z,46.17
2023-02-16T03:08:06.529Z,52.07
2023-02-16T03:10:54.584Z,51.90
2023-02-16T03:13:23.644Z,48.97
2023-02-16T03:15:55.894Z,51.10
2023-02-16T03:18:43.569Z,46.77
2023-02-16T03:21:32.018Z,49.20
2023-02-16T03:24:19.998Z,47.67
2023-02-16T03:27:08.967Z,47.87
2023-02-16T03:29:38.646Z,45.93
2023-02-16T03:32:08.396Z,46.17
2023-02-16T03:34:38.192Z,45.63
2023-02-16T03:37:07.222Z,46.97
2023-02-16T03:39:55.586Z,46.60
2023-02-16T03:42:24.128Z,50.73
2023-02-16T03:44:52.499Z,47.23
2023-02-16T03:47:21.977Z,46.53
2023-02-16T03:49:50.381Z,45.97
2023-02-16T03:52:18.516Z,47.90
2023-02-16T03:54:46.698Z,46.43
2023-02-16T03:57:14.910Z,50.83
2023-02-16T03:59:43.079Z,46.07
2023-02-16T04:02:11.298Z,46.20
2023-02-16T04:04:40.874Z,44.00
2023-02-16T04:07:08.991Z,45.90
2023-02-16T04:09:37.138Z,49.73
2023-02-16T04:12:23.034Z,48.33
2023-02-16T04:14:51.270Z,45.50
2023-02-16T04:17:19.445Z,45.83
2023-02-16T04:19:49.027Z,44.10
2023-02-16T04:22:17.217Z,45.47
2023-02-16T04:24:45.373Z,47.63
2023-02-16T04:27:13.576Z,47.37
2023-02-16T04:29:41.783Z,47.87
2023-02-16T04:32:10.124Z,45.93
2023-02-16T04:34:38.428Z,47.03
2023-02-16T04:37:07.970Z,46.23
2023-02-16T04:39:36.150Z,49.07
2023-02-16T04:42:04.346Z,48.37
2023-02-16T04:44:32.551Z,49.93
2023-02-16T04:47:00.741Z,46.70
2023-02-16T04:49:29.005Z,47.87
2023-02-16T04:51:57.147Z,50.80
2023-02-16T04:54:26.670Z,45.67
2023-02-16T04:56:55.125Z,44.37
2023-02-16T04:59:23.318Z,44.77
2023-02-16T05:01:51.485Z,46.70
2023-02-16T05:04:19.674Z,45.37
2023-02-16T05:06:47.928Z,44.90
2023-02-16T05:09:16.070Z,49.80
2023-02-16T05:12:03.375Z,46.53
2023-02-16T05:14:45.056Z,45.13
2023-02-16T05:17:14.694Z,46.03
2023-02-16T05:19:43.091Z,47.30
2023-02-16T05:22:11.465Z,46.30
2023-02-16T05:24:40.286Z,45.27
2023-02-16T05:27:10.425Z,42.87
2023-02-16T05:29:38.622Z,47.00
2023-02-16T05:32:06.974Z,46.80
2023-02-16T05:34:35.219Z,43.87
2023-02-16T05:37:03.426Z,46.37
2023-02-16T05:39:31.606Z,48.90
2023-02-16T05:42:00.206Z,46.80
2023-02-16T05:44:29.781Z,46.03
2023-02-16T05:46:57.912Z,46.53
2023-02-16T05:49:26.550Z,44.60
2023-02-16T05:51:54.710Z,46.53
2023-02-16T05:54:22.910Z,45.60
2023-02-16T05:56:52.398Z,46.63
2023-02-16T05:59:20.757Z,50.47
2023-02-16T06:01:52.089Z,46.00
2023-02-16T06:04:20.889Z,42.90
2023-02-16T06:06:49.333Z,45.13
2023-02-16T06:09:17.460Z,45.27
2023-02-16T06:11:45.653Z,48.57
2023-02-16T06:14:15.051Z,48.33
2023-02-16T06:16:44.435Z,47.20
2023-02-16T06:19:13.984Z,49.00
2023-02-16T06:21:42.297Z,47.90
2023-02-16T06:24:11.581Z,46.37
2023-02-16T06:26:39.795Z,46.13
2023-02-16T06:29:08.297Z,44.97
2023-02-16T06:31:37.143Z,46.43
2023-02-16T06:34:05.532Z,50.70
2023-02-16T06:36:35.436Z,45.63
2023-02-16T06:39:03.770Z,49.43
2023-02-16T06:41:37.792Z,48.57
2023-02-16T06:44:06.951Z,45.57
2023-02-16T06:46:35.266Z,46.53
2023-02-16T06:49:03.495Z,49.60
2023-02-16T06:51:32.060Z,46.13
2023-02-16T06:54:01.569Z,49.37
2023-02-16T06:56:29.748Z,49.47
2023-02-16T06:58:57.887Z,47.57
2023-02-16T07:01:26.323Z,46.37
2023-02-16T07:03:55.164Z,49.23
2023-02-16T07:06:24.106Z,45.63
2023-02-16T07:08:52.295Z,51.27
2023-02-16T07:11:22.026Z,46.83
2023-02-16T07:13:50.283Z,45.07
2023-02-16T07:16:18.533Z,46.00
2023-02-16T07:18:47.327Z,47.47
2023-02-16T07:21:15.854Z,47.30
2023-02-16T07:23:44.171Z,45.30
2023-02-16T07:26:12.505Z,49.27
2023-02-16T07:28:42.049Z,47.43
2023-02-16T07:31:11.377Z,51.50
2023-02-16T07:33:39.972Z,46.80
2023-02-16T07:36:08.440Z,47.97
2023-02-16T07:38:36.657Z,49.47
2023-02-16T07:41:08.644Z,49.13
2023-02-16T07:43:37.769Z,44.87
2023-02-16T07:46:07.426Z,47.50
2023-02-16T07:48:35.740Z,46.77
2023-02-16T07:51:04.404Z,48.57
2023-02-16T07:53:32.888Z,49.23
2023-02-16T07:56:01.108Z,48.37
2023-02-16T07:58:29.348Z,50.37
2023-02-16T08:00:58.251Z,51.97
2023-02-16T08:03:27.861Z,50.93
2023-02-16T08:05:56.101Z,47.20
2023-02-16T08:08:24.290Z,49.83
2023-02-16T08:10:52.473Z,50.73
2023-02-16T08:13:20.702Z,46.77
2023-02-16T08:15:48.894Z,49.47
2023-02-16T08:18:17.100Z,48.17
2023-02-16T08:21:02.807Z,52.00
2023-02-16T08:23:32.434Z,50.57
2023-02-16T08:26:00.693Z,52.47
2023-02-16T08:28:29.594Z,50.43
2023-02-16T08:30:57.893Z,54.33
2023-02-16T08:33:26.078Z,48.67
2023-02-16T08:35:55.629Z,56.63
2023-02-16T08:38:23.842Z,53.90
2023-02-16T08:40:52.323Z,53.07
2023-02-16T08:43:20.540Z,55.77
2023-02-16T08:45:48.953Z,55.50
2023-02-16T08:48:17.814Z,56.37
2023-02-16T08:50:53.392Z,56.47
2023-02-16T08:53:23.125Z,57.40
2023-02-16T08:55:55.587Z,55.57
2023-02-16T08:58:24.474Z,56.67
2023-02-16T09:00:52.741Z,56.50
2023-02-16T09:03:21.040Z,60.67
2023-02-16T09:05:49.777Z,55.80
2023-02-16T09:08:18.266Z,53.93
2023-02-16T09:10:47.798Z,57.60
2023-02-16T09:13:16.207Z,60.80
2023-02-16T09:15:44.798Z,56.90
2023-02-16T09:18:14.012Z,60.53
2023-02-16T09:20:44.893Z,59.63
2023-02-16T09:23:14.850Z,57.80
2023-02-16T09:25:43.045Z,60.20
2023-02-16T09:28:13.723Z,63.70
2023-02-16T09:30:41.963Z,64.70
2023-02-16T09:33:10.168Z,66.43
2023-02-16T09:35:40.173Z,73.77
2023-02-16T09:38:16.890Z,82.47
2023-02-16T09:40:45.515Z,71.97
2023-02-16T09:43:22.720Z,81.10
2023-02-16T09:45:53.236Z,76.73
2023-02-16T09:48:23.673Z,71.77
2023-02-16T09:50:54.912Z,63.00
2023-02-16T09:53:24.556Z,58.57
2023-02-16T09:55:58.088Z,61.40
2023-02-16T09:58:30.647Z,60.93
2023-02-16T10:01:05.418Z,58.97
2023-02-16T10:03:38.123Z,63.43
2023-02-16T10:06:14.875Z,63.93
2023-02-16T10:08:45.482Z,68.70
2023-02-16T10:11:30.686Z,65.20
2023-02-16T10:14:02.660Z,74.23
2023-02-16T10:16:32.177Z,77.37
2023-02-16T10:19:02.504Z,80.93
2023-02-16T10:21:31.598Z,72.63
2023-02-16T10:24:02.457Z,87.60
2023-02-16T10:26:34.064Z,75.80
2023-02-16T10:29:07.551Z,80.17
2023-02-16T10:31:37.785Z,85.97
2023-02-16T10:34:14.063Z,72.37
2023-02-16T10:36:48.207Z,66.67
2023-02-16T10:39:21.381Z,63.73
2023-02-16T10:41:52.632Z,67.97
2023-02-16T10:44:24.254Z,71.83
2023-02-16T10:46:56.510Z,62.67
2023-02-16T10:49:26.805Z,66.33
2023-02-16T10:51:55.797Z,75.80
2023-02-16T10:54:26.122Z,81.63
2023-02-16T10:56:57.411Z,68.83
2023-02-16T10:59:28.047Z,66.60
2023-02-16T11:01:57.561Z,63.03
2023-02-16T11:04:39.592Z,55.63
2023-02-16T11:07:09.082Z,62.00
2023-02-16T11:09:37.815Z,63.20
2023-02-16T11:12:16.756Z,59.10
2023-02-16T11:14:51.364Z,66.67
2023-02-16T11:17:20.296Z,66.70
2023-02-16T11:19:53.845Z,61.43
2023-02-16T11:22:29.591Z,58.67
2023-02-16T11:24:59.298Z,56.10
2023-02-16T11:27:27.480Z,50.73
2023-02-16T11:30:22.198Z,49.13
2023-02-16T11:32:50.734Z,45.30
2023-02-16T11:35:19.641Z,50.77
2023-02-16T11:37:48.069Z,49.40
2023-02-16T11:40:21.521Z,48.87
2023-02-16T11:42:51.632Z,51.73
2023-02-16T11:45:26.938Z,52.07
2023-02-16T11:47:56.617Z,49.53
2023-02-16T11:50:26.939Z,45.13
2023-02-16T11:52:55.684Z,42.93
2023-02-16T11:55:26.914Z,41.73
2023-02-16T11:57:57.009Z,41.67
2023-02-16T12:00:27.574Z,40.73
2023-02-16T12:03:04.413Z,39.97
2023-02-16T12:05:37.509Z,39.03
2023-02-16T12:08:12.809Z,42.40
2023-02-16T12:10:42.342Z,40.63
2023-02-16T12:13:17.703Z,41.40
2023-02-16T12:15:50.998Z,38.80
2023-02-16T12:18:28.966Z,37.17
2023-02-16T12:21:00.710Z,39.87
2023-02-16T12:23:34.065Z,36.53
2023-02-16T12:26:11.389Z,34.70
2023-02-16T12:28:42.259Z,36.67
2023-02-16T12:31:17.078Z,33.83
2023-02-16T12:33:49.616Z,30.77
2023-02-16T12:36:24.767Z,34.83
2023-02-16T12:38:55.555Z,29.47
2023-02-16T12:41:27.605Z,30.60
2023-02-16T12:43:57.814Z,31.23
2023-02-16T12:46:29.574Z,31.07
2023-02-16T12:49:01.131Z,32.30
2023-02-16T12:51:32.137Z,29.17
2023-02-16T12:54:03.146Z,33.93
2023-02-16T12:56:33.809Z,33.90
2023-02-16T12:59:16.796Z,33.53
2023-02-16T13:01:47.166Z,32.87
2023-02-16T13:04:19.312Z,37.47
2023-02-16T13:06:50.374Z,37.17
2023-02-16T13:09:23.631Z,34.57
2023-02-16T13:11:54.149Z,34.43
2023-02-16T13:14:25.018Z,33.43
2023-02-16T13:16:56.981Z,30.47
2023-02-16T13:19:25.178Z,34.90
2023-02-16T13:22:05.379Z,35.47
2023-02-16T13:24:39.148Z,30.57
2023-02-16T13:27:14.001Z,33.60
2023-02-16T13:29:52.415Z,30.40
2023-02-16T13:32:40.583Z,34.37
2023-02-16T13:35:23.660Z,34.33
2023-02-16T13:37:59.822Z,31.87
2023-02-16T13:40:46.034Z,31.17
2023-02-16T13:43:24.787Z,32.60
2023-02-16T13:45:54.496Z,32.30
2023-02-16T13:48:28.550Z,34.13
2023-02-16T13:50:57.977Z,34.37
2023-02-16T13:53:26.183Z,32.67
2023-02-16T13:56:09.279Z,30.40
2023-02-16T13:58:37.563Z,31.43
2023-02-16T14:01:26.496Z,32.90
2023-02-16T14:03:56.129Z,32.10
2023-02-16T14:06:32.800Z,30.03
2023-02-16T14:09:15.993Z,27.77
2023-02-16T14:11:59.419Z,31.23
2023-02-16T14:14:29.147Z,27.47
2023-02-16T14:16:57.443Z,28.27
2023-02-16T14:19:27.935Z,26.97
2023-02-16T14:21:56.159Z,24.70
2023-02-16T14:24:30.035Z,26.97
2023-02-16T14:27:00.044Z,27.57
2023-02-16T14:29:29.555Z,26.77
2023-02-16T14:32:00.366Z,22.63
2023-02-16T14:34:31.565Z,27.70
2023-02-16T14:37:22.381Z,24.93
2023-02-16T14:40:11.209Z,25.10
2023-02-16T14:42:38.886Z,22.73
2023-02-16T14:45:13.338Z,23.67
2023-02-16T14:47:47.004Z,29.03
2023-02-16T14:50:26.520Z,24.53
2023-02-16T14:53:05.522Z,25.70
2023-02-16T14:55:57.556Z,26.53
2023-02-16T14:58:28.927Z,24.47
2023-02-16T15:00:59.247Z,27.97
2023-02-16T15:03:28.081Z,25.63
2023-02-16T15:05:59.106Z,26.07
2023-02-16T15:08:34.745Z,24.80
2023-02-16T15:11:05.974Z,27.77
2023-02-16T15:13:35.410Z,27.23
2023-02-16T15:16:05.964Z,30.40
2023-02-16T15:18:35.740Z,29.00
2023-02-16T15:21:05.681Z,33.83
2023-02-16T15:23:34.998Z,31.70
2023-02-16T15:26:04.302Z,32.13
2023-02-16T15:28:33.739Z,33.67
2023-02-16T15:31:03.223Z,36.10
2023-02-16T15:33:37.148Z,35.27
2023-02-16T15:36:08.939Z,32.67
2023-02-16T15:38:38.978Z,38.03
2023-02-16T15:41:08.622Z,34.73
2023-02-16T15:43:39.989Z,35.57
2023-02-16T15:46:09.271Z,35.33
2023-02-16T15:48:38.879Z,47.13
2023-02-16T15:51:13.721Z,65.17
2023-02-16T15:53:45.720Z,73.07
2023-02-16T15:56:29.526Z,86.47
2023-02-16T15:58:58.273Z,87.97
2023-02-16T16:01:32.902Z,106.97
2023-02-16T16:04:02.478Z,95.80
2023-02-16T16:06:37.135Z,95.50
2023-02-16T16:09:08.373Z,114.37
2023-02-16T16:11:38.179Z,108.67
2023-02-16T16:14:07.160Z,131.53
2023-02-16T16:16:36.079Z,156.63
2023-02-16T16:19:08.301Z,182.40
2023-02-16T16:21:47.990Z,221.80
2023-02-16T16:24:28.530Z,243.67
2023-02-16T16:26:57.720Z,267.07
2023-02-16T16:29:33.147Z,289.60
2023-02-16T16:32:01.812Z,292.83
2023-02-16T16:34:39.784Z,236.60
2023-02-16T16:37:20.228Z,274.93
2023-02-16T16:39:59.000Z,275.33
2023-02-16T16:42:27.313Z,267.77
2023-02-16T16:45:00.131Z,293.47
2023-02-16T16:47:30.054Z,329.93
2023-02-16T16:49:59.105Z,349.47
2023-02-16T16:52:36.205Z,365.07
2023-02-16T16:55:17.043Z,280.40
2023-02-16T16:57:45.211Z,332.97
2023-02-16T17:00:14.131Z,344.33
2023-02-16T17:02:42.351Z,355.03
2023-02-16T17:05:10.718Z,355.07
2023-02-16T17:07:40.233Z,383.73
2023-02-16T17:10:09.105Z,419.47
2023-02-16T17:12:37.364Z,367.17
2023-02-16T17:15:08.156Z,288.60
2023-02-16T17:17:38.406Z,395.00
2023-02-16T17:20:15.337Z,412.40
2023-02-16T17:22:44.852Z,471.13
2023-02-16T17:25:13.265Z,445.30
2023-02-16T17:27:41.452Z,474.50
2023-02-16T17:30:10.985Z,508.50
2023-02-16T17:32:39.291Z,543.03
2023-02-16T17:35:07.768Z,584.87
2023-02-16T17:37:36.495Z,486.40
2023-02-16T17:40:06.795Z,560.37
2023-02-16T17:42:35.252Z,589.73
2023-02-16T17:45:03.394Z,592.03
2023-02-16T17:47:31.885Z,609.43
2023-02-16T17:50:00.134Z,603.97
2023-02-16T17:52:28.348Z,635.73
2023-02-16T17:54:56.560Z,614.33
2023-02-16T17:57:26.234Z,674.97
2023-02-16T17:59:54.432Z,697.27
2023-02-16T18:02:22.609Z,665.63
2023-02-16T18:04:50.876Z,691.50
2023-02-16T18:07:19.961Z,718.87
2023-02-16T18:09:48.293Z,693.03
2023-02-16T18:12:16.509Z,704.07
2023-02-16T18:14:46.039Z,754.13
2023-02-16T18:17:14.352Z,738.27
2023-02-16T18:19:42.544Z,750.57
2023-02-16T18:22:10.940Z,754.00
2023-02-16T18:24:39.113Z,749.67
2023-02-16T18:27:07.389Z,725.07
2023-02-16T18:29:35.605Z,750.77
2023-02-16T18:32:05.244Z,758.13
2023-02-16T18:34:34.866Z,768.53
2023-02-16T18:37:03.062Z,784.43
2023-02-16T18:39:31.249Z,731.60
2023-02-16T18:41:59.385Z,766.47
2023-02-16T18:44:27.609Z,770.70
2023-02-16T18:46:55.957Z,771.03
2023-02-16T18:49:25.497Z,763.37
2023-02-16T18:51:53.625Z,784.97
2023-02-16T18:54:21.837Z,778.60
2023-02-16T18:56:49.986Z,767.03
2023-02-16T18:59:18.147Z,778.63
2023-02-16T19:01:46.387Z,787.57
2023-02-16T19:04:14.668Z,776.97
2023-02-16T19:06:44.158Z,794.63
2023-02-16T19:09:12.314Z,795.13
2023-02-16T19:11:40.698Z,785.13
2023-02-16T19:14:09.438Z,791.00
2023-02-16T19:16:37.761Z,817.07
2023-02-16T19:19:05.899Z,799.83
2023-02-16T19:21:38.214Z,791.40
2023-02-16T19:24:08.740Z,787.80
2023-02-16T19:26:37.798Z,765.10
2023-02-16T19:29:06.457Z,796.73
2023-02-16T19:31:35.495Z,786.87
2023-02-16T19:34:03.735Z,797.90
2023-02-16T19:36:34.250Z,771.97
2023-02-16T19:39:02.439Z,794.97
2023-02-16T19:41:32.741Z,777.17
2023-02-16T19:44:00.915Z,792.23
2023-02-16T19:46:30.090Z,810.93
2023-02-16T19:48:58.910Z,811.67
2023-02-16T19:51:27.260Z,815.17
2023-02-16T19:53:55.493Z,811.50
2023-02-16T19:56:25.031Z,798.90
2023-02-16T19:58:54.747Z,784.27
2023-02-16T20:01:24.065Z,795.83
2023-02-16T20:03:53.299Z,790.83
2023-02-16T20:06:22.501Z,792.17
2023-02-16T20:08:51.401Z,796.90
2023-02-16T20:11:20.443Z,809.97
2023-02-16T20:13:48.921Z,822.80
2023-02-16T20:16:19.246Z,821.10
2023-02-16T20:18:47.486Z,809.47
2023-02-16T20:21:17.548Z,828.90
2023-02-16T20:23:46.305Z,826.10
2023-02-16T20:26:16.143Z,813.93
2023-02-16T20:28:44.352Z,839.07
2023-02-16T20:31:12.916Z,831.80
2023-02-16T20:33:43.094Z,836.07
2023-02-16T20:36:11.358Z,827.03
2023-02-16T20:38:39.705Z,833.63
2023-02-16T20:41:07.897Z,837.17
2023-02-16T20:43:36.090Z,836.17
2023-02-16T20:46:04.991Z,832.57
2023-02-16T20:48:33.794Z,839.73
2023-02-16T20:51:05.467Z,858.07
2023-02-16T20:53:33.691Z,847.33
2023-02-16T20:56:03.416Z,846.03
2023-02-16T20:58:32.016Z,829.37
2023-02-16T21:01:00.404Z,844.70
2023-02-16T21:03:28.639Z,854.77
2023-02-16T21:05:57.054Z,839.63
2023-02-16T21:08:26.614Z,847.83
2023-02-16T21:10:54.746Z,837.97
2023-02-16T21:13:22.898Z,847.50
2023-02-16T21:15:51.219Z,834.40
2023-02-16T21:18:19.412Z,836.33
2023-02-16T21:20:47.619Z,837.37
2023-02-16T21:23:15.826Z,848.77
2023-02-16T21:25:45.426Z,838.37
2023-02-16T21:28:13.614Z,845.53
2023-02-16T21:30:43.073Z,829.50
2023-02-16T21:33:11.488Z,831.87
2023-02-16T21:35:39.655Z,835.87
2023-02-16T21:38:07.872Z,825.07
2023-02-16T21:40:53.877Z,826.63
2023-02-16T21:43:23.386Z,816.67
2023-02-16T21:45:59.418Z,785.80
2023-02-16T21:48:45.234Z,782.23
2023-02-16T21:51:13.527Z,774.77
2023-02-16T21:53:41.698Z,793.47
2023-02-16T21:56:16.700Z,784.57
2023-02-16T21:58:46.245Z,789.87
2023-02-16T22:01:14.619Z,806.83
2023-02-16T22:03:42.850Z,797.13
2023-02-16T22:06:11.739Z,793.10
2023-02-16T22:08:39.922Z,762.33
2023-02-16T22:11:10.065Z,739.50
2023-02-16T22:13:38.500Z,781.53
2023-02-16T22:16:12.010Z,800.80
2023-02-16T22:18:40.299Z,794.33
2023-02-16T22:21:08.773Z,751.10
2023-02-16T22:23:37.093Z,787.03
2023-02-16T22:26:06.366Z,797.47
2023-02-16T22:28:34.742Z,756.70
2023-02-16T22:31:07.123Z,702.53
2023-02-16T22:33:36.715Z,758.80
2023-02-16T22:36:09.894Z,785.90
2023-02-16T22:38:38.106Z,772.57
2023-02-16T22:41:06.817Z,728.00
2023-02-16T22:43:35.262Z,769.67
2023-02-16T22:46:06.525Z,768.50
2023-02-16T22:48:34.906Z,741.27
2023-02-16T22:51:05.150Z,778.23
2023-02-16T22:53:33.405Z,746.33
2023-02-16T22:56:02.204Z,756.70
2023-02-16T22:58:31.018Z,767.40
2023-02-16T23:00:59.237Z,739.17
2023-02-16T23:03:42.477Z,693.53
2023-02-16T23:06:16.522Z,677.97
2023-02-16T23:08:45.218Z,722.90
2023-02-16T23:11:13.784Z,753.83
2023-02-16T23:13:41.971Z,733.27
2023-02-16T23:16:12.235Z,755.03
2023-02-16T23:18:40.808Z,771.83
2023-02-16T23:21:09.403Z,775.90
2023-02-16T23:23:38.893Z,740.30
2023-02-16T23:26:07.988Z,703.73
2023-02-16T23:28:36.460Z,677.87
2023-02-16T23:31:04.717Z,625.73
2023-02-16T23:33:32.918Z,661.70
2023-02-16T23:36:01.325Z,631.33
2023-02-16T23:38:29.534Z,593.93
2023-02-16T23:40:59.787Z,577.10
2023-02-16T23:43:28.017Z,564.03
2023-02-16T23:45:56.310Z,578.17
2023-02-16T23:48:24.808Z,579.90
2023-02-16T23:50:53.513Z,622.70
2023-02-16T23:53:22.737Z,666.83
2023-02-16T23:55:59.838Z,709.00
2023-02-16T23:58:28.791Z,728.97
